| time (UTC) | temp C | wind direction | speed KPH | gust KPH | rain 1hr cm | rain 24hr cm | rain mn cm | humidity % | barometer mb |
| 20260906221021 | 27 | 135 | 1.6 | 6.4 | 0.00 | 0.00 | 0.00 | 34 | 1020.5 |
| 20260906220021 | 28 | 113 | 6.4 | 16.1 | 0.00 | 0.00 | 0.00 | 32 | 1021.4 |
| 20260906215021 | 30 | 135 | 3.2 | 11.3 | 0.00 | 0.00 | 0.00 | 31 | 1021.4 |
| 20260906214022 | 29 | 135 | 1.6 | 6.4 | 0.00 | 0.00 | 0.00 | 31 | 1021.4 |
| 20260906213021 | 28 | 113 | 4.8 | 11.3 | 0.00 | 0.00 | 0.00 | 32 | 1021.5 |
| 20260906212020 | 28 | 113 | 4.8 | 11.3 | 0.00 | 0.00 | 0.00 | 31 | 1021.4 |
| 20260906211022 | 28 | 135 | 6.4 | 14.5 | 0.00 | 0.00 | 0.00 | 30 | 1021.4 |
| 20260906210023 | 28 | 135 | 4.8 | 11.3 | 0.00 | 0.00 | 0.00 | 32 | 1021.5 |
| 20260906205041 | 29 | 135 | 4.8 | 9.7 | 0.00 | 0.00 | 0.00 | 32 | 1021.9 |
| 20260906204021 | 29 | 113 | 6.4 | 12.9 | 0.00 | 0.00 | 0.00 | 31 | 1022.0 |
| 20260906203020 | 30 | 203 | 4.8 | 11.3 | 0.00 | 0.00 | 0.00 | 31 | 1022.4 |
| 20260906202021 | 29 | 135 | 6.4 | 14.5 | 0.00 | 0.00 | 0.00 | 29 | 1022.1 |
| 20260906201021 | 30 | 135 | 6.4 | 14.5 | 0.00 | 0.00 | 0.00 | 28 | 1022.3 |
| 20260906200022 | 29 | 135 | 6.4 | 17.7 | 0.00 | 0.00 | 0.00 | 31 | 1022.6 |
| 20260906195021 | 29 | 113 | 4.8 | 12.9 | 0.00 | 0.00 | 0.00 | 33 | 1022.5 |
| 20260906194021 | 28 | 203 | 4.8 | 11.3 | 0.00 | 0.00 | 0.00 | 34 | 1022.7 |
| 20260906193020 | 28 | 113 | 8.0 | 22.5 | 0.00 | 0.00 | 0.00 | 35 | 1023.0 |
| 20260906192021 | 28 | 135 | 8.0 | 17.7 | 0.00 | 0.00 | 0.00 | 33 | 1023.0 |
| 20260906191021 | 28 | 113 | 4.8 | 12.9 | 0.00 | 0.00 | 0.00 | 36 | 1023.4 |
| 20260906190020 | 27 | 135 | 8.0 | 17.7 | 0.00 | 0.00 | 0.00 | 37 | 1023.3 |
| 20260906185021 | 28 | 135 | 6.4 | 14.5 | 0.00 | 0.00 | 0.00 | 36 | 1023.6 |
| 20260906184021 | 28 | 113 | 4.8 | 12.9 | 0.00 | 0.00 | 0.00 | 38 | 1023.8 |
| 20260906183021 | 27 | 113 | 4.8 | 11.3 | 0.00 | 0.00 | 0.00 | 39 | 1024.0 |
| 20260906182021 | 27 | 113 | 1.6 | 6.4 | 0.00 | 0.00 | 0.00 | 40 | 1024.1 |
| 20260906181020 | 26 | 113 | 6.4 | 14.5 | 0.00 | 0.00 | 0.00 | 41 | 1023.7 |
| 20260906180021 | 27 | 113 | 6.4 | 14.5 | 0.00 | 0.00 | 0.00 | 38 | 1024.2 |
| 20260906175041 | 26 | 113 | 6.4 | 14.5 | 0.00 | 0.00 | 0.00 | 40 | 1024.0 |
| 20260906174021 | 27 | 90 | 8.0 | 17.7 | 0.00 | 0.00 | 0.00 | 40 | 1024.1 |
| 20260906173040 | 27 | 90 | 6.4 | 16.1 | 0.00 | 0.00 | 0.00 | 39 | 1024.1 |
| 20260906172020 | 26 | 90 | 4.8 | 12.9 | 0.00 | 0.00 | 0.00 | 40 | 1024.2 |
| 20260906171021 | 26 | 90 | 4.8 | 14.5 | 0.00 | 0.00 | 0.00 | 42 | 1024.4 |
| 20260906170021 | 25 | 90 | 4.8 | 11.3 | 0.00 | 0.00 | 0.00 | 42 | 1024.4 |
| 20260906165121 | 25 | 135 | 4.8 | 12.9 | 0.00 | 0.00 | 0.00 | 44 | 1024.5 |
| 20260906164021 | 25 | 113 | 4.8 | 11.3 | 0.00 | 0.00 | 0.00 | 44 | 1024.5 |
| 20260906163020 | 25 | 90 | 3.2 | 8.0 | 0.00 | 0.00 | 0.00 | 45 | 1025.0 |
| 20260906162020 | 24 | 113 | 3.2 | 11.3 | 0.00 | 0.00 | 0.00 | 43 | 1025.0 |
| 20260906161020 | 25 | 113 | 4.8 | 9.7 | 0.00 | 0.00 | 0.00 | 43 | 1025.1 |
| 20260906160020 | 24 | 113 | 3.2 | 6.4 | 0.00 | 0.00 | 0.00 | 42 | 1025.6 |
| 20260906155020 | 24 | 113 | 4.8 | 11.3 | 0.00 | 0.00 | 0.00 | 40 | 1025.4 |
| 20260906154040 | 23 | 90 | 1.6 | 3.2 | 0.00 | 0.00 | 0.00 | 41 | 1025.1 |
| 20260906153021 | 22 | 113 | 1.6 | 6.4 | 0.00 | 0.00 | 0.00 | 45 | 1024.9 |
| 20260906152039 | 22 | 113 | 3.2 | 11.3 | 0.00 | 0.00 | 0.00 | 42 | 1024.9 |
| 20260906151039 | 22 | 90 | 3.2 | 6.4 | 0.00 | 0.00 | 0.00 | 42 | 1025.0 |
| 20260906150020 | 21 | 113 | 1.6 | 6.4 | 0.00 | 0.00 | 0.00 | 44 | 1024.5 |
| 20260906145020 | 20 | 0.0 | 1.6 | 0.00 | 0.00 | 0.00 | 46 | 1024.0 | |
| 20260906144019 | 19 | 0.0 | 0.0 | 0.00 | 0.00 | 0.00 | 46 | 1023.4 | |
| 20260906143020 | 20 | 0.0 | 0.0 | 0.00 | 0.00 | 0.00 | 45 | 1023.4 | |
| 20260906142020 | 20 | 135 | 3.2 | 4.8 | 0.00 | 0.00 | 0.00 | 45 | 1023.3 |
| 20260906141019 | 19 | 90 | 1.6 | 4.8 | 0.00 | 0.00 | 0.00 | 48 | 1023.4 |
| 20260906140020 | 18 | 0.0 | 1.6 | 0.00 | 0.00 | 0.00 | 51 | 1022.3 | |
| 20260906135019 | 17 | 0.0 | 1.6 | 0.00 | 0.00 | 0.00 | 51 | 1022.3 | |
| 20260906134019 | 16 | 0.0 | 0.0 | 0.00 | 0.00 | 0.00 | 55 | 1021.9 | |
| 20260906133020 | 16 | 0.0 | 0.0 | 0.00 | 0.00 | 0.00 | 58 | 1021.9 | |
| 20260906132021 | 15 | 0.0 | 1.6 | 0.00 | 0.00 | 0.00 | 60 | 1021.3 | |
| 20260906131019 | 15 | 225 | 1.6 | 3.2 | 0.00 | 0.00 | 0.00 | 61 | 1021.1 |
| 20260906130021 | 15 | 0.0 | 1.6 | 0.00 | 0.00 | 0.00 | 64 | 1021.1 | |
| 20260906125020 | 15 | 0.0 | 1.6 | 0.00 | 0.00 | 0.00 | 64 | 1021.1 | |
| 20260906124019 | 15 | 0.0 | 1.6 | 0.00 | 0.00 | 0.00 | 62 | 1020.8 | |
| 20260906123020 | 15 | 225 | 3.2 | 3.2 | 0.00 | 0.00 | 0.00 | 61 | 1021.1 |
| 20260906122020 | 14 | 0.0 | 0.0 | 0.00 | 0.00 | 0.00 | 64 | 1021.2 | |
| 20260906121019 | 14 | 0.0 | 0.0 | 0.00 | 0.00 | 0.00 | 64 | 1021.3 | |
| 20260906120020 | 15 | 0.0 | 0.0 | 0.00 | 0.00 | 0.00 | 64 | 1021.2 | |
| 20260906115039 | 15 | 158 | 1.6 | 1.6 | 0.00 | 0.00 | 0.00 | 61 | 1021.6 |
| 20260906114019 | 15 | 158 | 1.6 | 1.6 | 0.00 | 0.00 | 0.00 | 63 | 1021.6 |
| 20260906113020 | 15 | 0.0 | 1.6 | 0.00 | 0.00 | 0.00 | 62 | 1021.1 | |
| 20260906112019 | 15 | 0.0 | 1.6 | 0.00 | 0.00 | 0.00 | 64 | 1021.1 | |
| 20260906111019 | 15 | 0.0 | 0.0 | 0.00 | 0.00 | 0.00 | 62 | 1021.0 | |
| 20260906110019 | 15 | 0.0 | 0.0 | 0.00 | 0.00 | 0.00 | 59 | 1022.0 | |
| 20260906105019 | 15 | 0.0 | 0.0 | 0.00 | 0.00 | 0.00 | 61 | 1022.1 | |
| 20260906104021 | 16 | 0.0 | 0.0 | 0.00 | 0.00 | 0.00 | 60 | 1022.0 | |
| 20260906103020 | 16 | 0.0 | 1.6 | 0.00 | 0.00 | 0.00 | 60 | 1023.0 | |
| 20260906102020 | 16 | 113 | 1.6 | 3.2 | 0.00 | 0.00 | 0.00 | 55 | 1022.7 |
| 20260906101021 | 16 | 113 | 1.6 | 3.2 | 0.00 | 0.00 | 0.00 | 54 | 1022.6 |
| 20260906100019 | 16 | 113 | 1.6 | 1.6 | 0.00 | 0.00 | 0.00 | 53 | 1022.9 |
| 20260906095021 | 16 | 0.0 | 0.0 | 0.00 | 0.00 | 0.00 | 53 | 1022.7 | |
| 20260906094020 | 16 | 0.0 | 0.0 | 0.00 | 0.00 | 0.00 | 54 | 1022.7 | |
| 20260906093019 | 16 | 0.0 | 0.0 | 0.00 | 0.00 | 0.00 | 54 | 1023.2 | |
| 20260906092020 | 17 | 0.0 | 0.0 | 0.00 | 0.00 | 0.00 | 53 | 1023.0 | |
| 20260906091040 | 17 | 0.0 | 0.0 | 0.00 | 0.00 | 0.00 | 52 | 1023.0 | |
| 20260906090041 | 17 | 0.0 | 0.0 | 0.00 | 0.00 | 0.00 | 53 | 1023.1 | |
| 20260906085039 | 17 | 0.0 | 0.0 | 0.00 | 0.00 | 0.00 | 52 | 1023.1 | |
| 20260906084022 | 17 | 0.0 | 0.0 | 0.00 | 0.00 | 0.00 | 51 | 1023.0 | |
| 20260906083022 | 17 | 0.0 | 1.6 | 0.00 | 0.00 | 0.00 | 51 | 1023.7 | |
| 20260906082020 | 18 | 0.0 | 1.6 | 0.00 | 0.00 | 0.00 | 50 | 1023.7 | |
| 20260906081020 | 18 | 0.0 | 1.6 | 0.00 | 0.00 | 0.00 | 50 | 1023.7 | |
| 20260906080020 | 18 | 0.0 | 3.2 | 0.00 | 0.00 | 0.00 | 49 | 1024.4 | |
| 20260906075041 | 18 | 0.0 | 1.6 | 0.00 | 0.00 | 0.00 | 49 | 1024.5 | |
| 20260906074019 | 18 | 0.0 | 1.6 | 0.00 | 0.00 | 0.00 | 49 | 1024.5 | |
| 20260906073019 | 19 | 68 | 1.6 | 3.2 | 0.00 | 0.00 | 0.00 | 49 | 1024.6 |
| 20260906072022 | 19 | 113 | 1.6 | 3.2 | 0.00 | 0.00 | 0.00 | 48 | 1024.6 |
| 20260906071021 | 19 | 203 | 1.6 | 3.2 | 0.00 | 0.00 | 0.00 | 48 | 1024.4 |
| 20260906070041 | 19 | 0.0 | 0.0 | 0.00 | 0.00 | 0.00 | 48 | 1023.9 | |
| 20260906065019 | 19 | 293 | 1.6 | 3.2 | 0.00 | 0.00 | 0.00 | 48 | 1024.1 |
| 20260906064020 | 20 | 248 | 1.6 | 4.8 | 0.00 | 0.00 | 0.00 | 48 | 1024.6 |
| 20260906063020 | 20 | 293 | 1.6 | 4.8 | 0.00 | 0.00 | 0.00 | 46 | 1024.2 |
| 20260906062021 | 20 | 315 | 1.6 | 3.2 | 0.00 | 0.00 | 0.00 | 46 | 1024.2 |
| 20260906061021 | 20 | 338 | 1.6 | 3.2 | 0.00 | 0.00 | 0.00 | 46 | 1024.3 |
| 20260906060022 | 20 | 338 | 3.2 | 6.4 | 0.00 | 0.00 | 0.00 | 47 | 1024.7 |
| 20260906055019 | 20 | 0.0 | 3.2 | 0.00 | 0.00 | 0.00 | 48 | 1024.2 | |
| 20260906054021 | 20 | 0.0 | 3.2 | 0.00 | 0.00 | 0.00 | 49 | 1024.4 | |
| 20260906053021 | 20 | 203 | 1.6 | 3.2 | 0.00 | 0.00 | 0.00 | 52 | 1024.4 |
| 20260906052102 | 20 | 270 | 1.6 | 1.6 | 0.00 | 0.00 | 0.00 | 52 | 1024.4 |
| 20260906051100 | 20 | 315 | 1.6 | 3.2 | 0.00 | 0.00 | 0.00 | 54 | 1024.4 |
| 20260906050042 | 20 | 315 | 1.6 | 4.8 | 0.00 | 0.00 | 0.00 | 53 | 1024.1 |
| 20260906045020 | 20 | 203 | 3.2 | 8.0 | 0.00 | 0.00 | 0.00 | 54 | 1024.3 |
| 20260906044021 | 21 | 315 | 4.8 | 6.4 | 0.00 | 0.00 | 0.00 | 53 | 1024.4 |
| 20260906043021 | 22 | 293 | 4.8 | 9.7 | 0.00 | 0.00 | 0.00 | 40 | 1024.8 |
| 20260906042042 | 22 | 0.0 | 0.0 | 0.00 | 0.00 | 0.00 | 36 | 1024.9 | |
| 20260906041021 | 23 | 0.0 | 0.0 | 0.00 | 0.00 | 0.00 | 35 | 1024.6 | |
| 20260906040022 | 23 | 0.0 | 1.6 | 0.00 | 0.00 | 0.00 | 35 | 1024.0 | |
| 20260906035022 | 23 | 113 | 3.2 | 6.4 | 0.00 | 0.00 | 0.00 | 34 | 1024.4 |
| 20260906034022 | 25 | 113 | 1.6 | 3.2 | 0.00 | 0.00 | 0.00 | 32 | 1024.6 |
| 20260906033022 | 25 | 248 | 3.2 | 14.5 | 0.00 | 0.00 | 0.00 | 29 | 1024.1 |
| 20260906032101 | 25 | 270 | 6.4 | 16.1 | 0.00 | 0.00 | 0.00 | 30 | 1024.1 |
| 20260906031020 | 25 | 270 | 6.4 | 16.1 | 0.00 | 0.00 | 0.00 | 30 | 1024.0 |
| 20260906030021 | 25 | 270 | 9.7 | 20.9 | 0.00 | 0.00 | 0.00 | 30 | 1023.6 |
| 20260906025021 | 25 | 293 | 11.3 | 22.5 | 0.00 | 0.00 | 0.00 | 31 | 1023.5 |
| 20260906024040 | 25 | 293 | 6.4 | 12.9 | 0.00 | 0.00 | 0.00 | 30 | 1023.5 |
| 20260906023022 | 25 | 270 | 6.4 | 14.5 | 0.00 | 0.00 | 0.00 | 31 | 1023.4 |
| 20260906022020 | 25 | 270 | 8.0 | 22.5 | 0.00 | 0.00 | 0.00 | 31 | 1023.1 |
| 20260906021021 | 25 | 270 | 11.3 | 24.1 | 0.00 | 0.00 | 0.00 | 32 | 1023.1 |
| 20260906020021 | 24 | 270 | 11.3 | 20.9 | 0.00 | 0.00 | 0.00 | 33 | 1022.8 |
| 20260906015042 | 25 | 293 | 12.9 | 19.3 | 0.00 | 0.00 | 0.00 | 32 | 1023.4 |
| 20260906014021 | 25 | 270 | 11.3 | 20.9 | 0.00 | 0.00 | 0.00 | 32 | 1023.5 |
| 20260906013040 | 24 | 270 | 6.4 | 14.5 | 0.00 | 0.00 | 0.00 | 33 | 1022.4 |
| 20260906012020 | 24 | 225 | 1.6 | 6.4 | 0.00 | 0.00 | 0.00 | 33 | 1022.4 |
| 20260906011041 | 25 | 270 | 4.8 | 11.3 | 0.00 | 0.00 | 0.00 | 32 | 1022.4 |
| 20260906010022 | 25 | 270 | 11.3 | 17.7 | 0.00 | 0.00 | 0.00 | 33 | 1022.6 |
| 20260906005020 | 25 | 293 | 14.5 | 25.7 | 0.00 | 0.00 | 0.00 | 33 | 1022.9 |
| 20260906004019 | 25 | 270 | 9.7 | 22.5 | 0.00 | 0.00 | 0.00 | 33 | 1023.2 |
| 20260906003019 | 25 | 270 | 4.8 | 11.3 | 0.00 | 0.00 | 0.00 | 33 | 1022.7 |
| 20260906002021 | 25 | 315 | 6.4 | 14.5 | 0.00 | 0.00 | 0.00 | 34 | 1022.5 |
| 20260906001019 | 26 | 270 | 16.1 | 32.2 | 0.00 | 0.00 | 0.00 | 29 | 1023.8 |
| 20260906000021 | 26 | 203 | 1.6 | 6.4 | 0.00 | 0.00 | 0.00 | 29 | 1022.0 |
| 20260905235040 | 27 | 293 | 3.2 | 6.4 | 0.00 | 0.00 | 0.00 | 27 | 1021.8 |
| 20260905234019 | 27 | 315 | 4.8 | 11.3 | 0.00 | 0.00 | 0.00 | 26 | 1021.8 |
| 20260905233020 | 27 | 293 | 1.6 | 3.2 | 0.00 | 0.00 | 0.00 | 26 | 1021.4 |
| 20260905232020 | 27 | 338 | 3.2 | 6.4 | 0.00 | 0.00 | 0.00 | 26 | 1021.3 |
| 20260905231019 | 26 | 270 | 8.0 | 14.5 | 0.00 | 0.00 | 0.00 | 28 | 1021.3 |
| 20260905230019 | 26 | 293 | 6.4 | 12.9 | 0.00 | 0.00 | 0.00 | 29 | 1021.1 |
| 20260905225020 | 26 | 315 | 12.9 | 27.4 | 0.00 | 0.00 | 0.00 | 30 | 1021.2 |
| 20260905224020 | 27 | 270 | 16.1 | 40.2 | 0.00 | 0.00 | 0.00 | 28 | 1021.7 |
| 20260905223020 | 28 | 158 | 1.6 | 11.3 | 0.00 | 0.00 | 0.00 | 22 | 1021.9 |
| 20260905222019 | 29 | 225 | 1.6 | 6.4 | 0.00 | 0.00 | 0.00 | 22 | 1021.7 |